Time;durP1;ratioP1;P1;durP2;ratioP2;P2;SDS_P1;SDS_P2;PMS_P1;PMS_P2;Temp;Humidity;BMP_temperature;BMP_pressure;BME280_temperature;BME280_humidity;BME280_pressure;Samples;Min_cycle;Max_cycle;Signal;HPM_P1;HPM_P2
2021/05/04 00:01:05;;;;;;;63.70;48.90;;;16.30;99.90;;;;;;4928827;29;20047;-71
2021/05/04 00:03:32;;;;;;;65.47;50.67;;;16.40;99.90;;;;;;4928083;29;20118;-72
2021/05/04 00:06:00;;;;;;;69.97;49.58;;;16.40;99.90;;;;;;4918952;29;20081;-71
2021/05/04 00:08:27;;;;;;;61.17;48.90;;;16.40;99.90;;;;;;4932680;29;20098;-71
2021/05/04 00:10:54;;;;;;;56.80;47.05;;;16.40;99.90;;;;;;4936396;29;20036;-71
2021/05/04 00:13:22;;;;;;;63.78;47.50;;;16.50;99.90;;;;;;4915912;29;20044;-71
2021/05/04 00:15:49;;;;;;;65.32;47.67;;;16.40;99.90;;;;;;4934438;29;20035;-71
2021/05/04 00:18:17;;;;;;;57.22;46.72;;;16.20;99.90;;;;;;4916270;29;20048;-70
2021/05/04 00:20:44;;;;;;;62.05;47.80;;;16.20;99.90;;;;;;4933552;29;20043;-71
2021/05/04 00:23:11;;;;;;;63.35;49.72;;;16.10;99.90;;;;;;4932169;29;20058;-71
2021/05/04 00:25:39;;;;;;;62.75;49.10;;;16.00;99.90;;;;;;4931952;29;20489;-71
2021/05/04 00:28:07;;;;;;;65.22;50.85;;;15.90;99.90;;;;;;4931017;29;20071;-71
2021/05/04 00:30:34;;;;;;;68.03;53.60;;;15.80;99.90;;;;;;4932978;29;20036;-71
2021/05/04 00:33:01;;;;;;;73.68;57.15;;;15.70;99.90;;;;;;4925119;29;20074;-71
2021/05/04 00:35:29;;;;;;;69.78;54.92;;;15.70;99.90;;;;;;4932424;29;20036;-71
2021/05/04 00:37:56;;;;;;;73.97;57.88;;;15.60;99.90;;;;;;4915256;29;20076;-70
2021/05/04 00:40:23;;;;;;;72.80;58.58;;;15.50;99.90;;;;;;4937832;29;20121;-71
2021/05/04 00:42:51;;;;;;;77.32;58.30;;;15.60;99.90;;;;;;4933872;29;20485;-69
2021/05/04 00:45:18;;;;;;;70.47;62.85;;;15.50;99.90;;;;;;4931838;29;20165;-69
2021/05/04 00:47:45;;;;;;;74.85;59.28;;;15.60;99.90;;;;;;4935306;29;20123;-69
2021/05/04 00:50:13;;;;;;;68.20;58.83;;;15.50;99.90;;;;;;4931722;29;20036;-69
2021/05/04 00:52:41;;;;;;;69.13;55.33;;;15.50;99.90;;;;;;4934546;29;20481;-69
2021/05/04 00:55:09;;;;;;;67.15;54.75;;;15.50;99.90;;;;;;4930270;29;20040;-69
2021/05/04 00:57:37;;;;;;;65.50;51.40;;;15.50;99.90;;;;;;4931440;29;20047;-69
2021/05/04 01:00:08;;;;;;;58.30;48.05;;;15.70;99.90;;;;;;4929724;29;20046;-69
2021/05/04 01:02:35;;;;;;;59.97;47.83;;;15.60;99.90;;;;;;4927604;29;20110;-69
2021/05/04 01:05:03;;;;;;;60.25;49.90;;;15.70;99.90;;;;;;4931801;29;20032;-69
2021/05/04 01:07:30;;;;;;;64.60;48.92;;;15.80;99.90;;;;;;4922265;29;20413;-69
2021/05/04 01:09:57;;;;;;;63.15;50.85;;;15.90;99.90;;;;;;4930829;29;20031;-69
2021/05/04 01:12:27;;;;;;;59.58;49.10;;;16.00;99.90;;;;;;4930288;29;20123;-69
2021/05/04 01:14:56;;;;;;;69.60;48.70;;;16.00;99.90;;;;;;4927223;29;20122;-68
2021/05/04 01:17:24;;;;;;;65.85;52.03;;;16.10;99.90;;;;;;4937786;29;20130;-68
2021/05/04 01:19:51;;;;;;;69.30;55.38;;;16.00;99.90;;;;;;4932569;29;20056;-69
2021/05/04 01:22:19;;;;;;;70.45;52.92;;;15.90;99.90;;;;;;4933750;29;20032;-70
2021/05/04 01:24:46;;;;;;;65.13;54.20;;;15.80;99.90;;;;;;4941648;29;20067;-70
2021/05/04 01:27:16;;;;;;;58.70;49.05;;;15.80;99.90;;;;;;4934387;29;20422;-70
2021/05/04 01:29:44;;;;;;;56.92;45.70;;;15.60;99.90;;;;;;4938947;29;20389;-69
2021/05/04 01:32:12;;;;;;;48.55;41.35;;;15.60;99.90;;;;;;4916341;29;20040;-70
2021/05/04 01:34:39;;;;;;;48.80;39.67;;;15.60;99.90;;;;;;4945604;29;20031;-71
2021/05/04 01:37:07;;;;;;;52.38;41.15;;;15.60;99.90;;;;;;4933257;29;20040;-71
2021/05/04 01:39:49;;;;;;;49.05;37.72;;;15.60;99.90;;;;;;4945122;29;20036;-70
2021/05/04 01:42:18;;;;;;;45.78;35.05;;;15.60;99.90;;;;;;4954111;29;20048;-71
2021/05/04 01:44:50;;;;;;;39.58;30.45;;;15.60;99.90;;;;;;4950310;29;20452;-70
2021/05/04 01:47:17;;;;;;;44.88;37.10;;;15.60;99.90;;;;;;4954131;29;20047;-70
2021/05/04 01:49:45;;;;;;;37.78;28.73;;;15.70;99.90;;;;;;4946347;29;20047;-71
2021/05/04 01:52:13;;;;;;;32.42;23.88;;;15.70;99.90;;;;;;4925808;29;20031;-71
2021/05/04 01:54:40;;;;;;;40.47;30.58;;;15.70;99.90;;;;;;4932740;29;20043;-71
2021/05/04 01:57:08;;;;;;;53.33;42.78;;;15.70;99.90;;;;;;4935396;29;20114;-71
2021/05/04 01:59:35;;;;;;;54.97;45.97;;;15.90;99.90;;;;;;4935356;29;20103;-71
2021/05/04 02:02:02;;;;;;;58.55;47.63;;;15.90;99.90;;;;;;4921553;29;20028;-70
2021/05/04 02:04:31;;;;;;;66.85;54.92;;;15.80;99.90;;;;;;4936783;29;20036;-71
2021/05/04 02:07:02;;;;;;;63.40;55.33;;;15.80;99.90;;;;;;4938465;29;20440;-71
2021/05/04 02:09:30;;;;;;;67.00;55.78;;;15.80;99.90;;;;;;4931438;29;20032;-71
2021/05/04 02:11:57;;;;;;;63.83;54.53;;;15.90;99.90;;;;;;4931945;29;20437;-71
2021/05/04 02:14:25;;;;;;;69.20;57.58;;;15.80;99.90;;;;;;4934306;29;20055;-71
2021/05/04 02:16:52;;;;;;;73.28;60.53;;;15.80;99.90;;;;;;4938583;29;20427;-70
2021/05/04 02:19:20;;;;;;;71.22;59.05;;;15.80;99.90;;;;;;4936568;29;20036;-71
2021/05/04 02:21:47;;;;;;;77.82;64.35;;;15.80;99.90;;;;;;4938642;29;20036;-71
2021/05/04 02:24:15;;;;;;;75.85;65.10;;;15.80;99.90;;;;;;4936537;29;20036;-71
2021/05/04 02:26:42;;;;;;;80.28;67.95;;;15.80;99.90;;;;;;4938228;29;20051;-71
2021/05/04 02:29:09;;;;;;;79.20;66.97;;;15.80;99.90;;;;;;4936877;29;20031;-71
2021/05/04 02:31:36;;;;;;;87.88;73.78;;;15.70;99.90;;;;;;4938227;29;20067;-71
2021/05/04 02:34:04;;;;;;;91.35;74.65;;;15.70;99.90;;;;;;4937289;29;20032;-71
2021/05/04 02:36:31;;;;;;;90.90;76.25;;;15.70;99.90;;;;;;4938315;29;20092;-71
2021/05/04 02:38:58;;;;;;;86.82;72.40;;;15.80;99.90;;;;;;4934575;29;20094;-71
2021/05/04 02:41:26;;;;;;;82.78;70.20;;;15.90;99.90;;;;;;4925717;29;20486;-72
2021/05/04 02:43:53;;;;;;;79.75;65.93;;;15.90;99.90;;;;;;4932841;29;20500;-71
2021/05/04 02:46:20;;;;;;;74.80;64.93;;;15.90;99.90;;;;;;4933985;29;20407;-71
2021/05/04 02:48:47;;;;;;;75.03;62.97;;;15.80;99.90;;;;;;4935885;29;20362;-71
2021/05/04 02:51:15;;;;;;;66.47;57.08;;;15.70;99.90;;;;;;4933965;29;20048;-70
2021/05/04 02:53:42;;;;;;;62.92;52.35;;;15.70;99.90;;;;;;4936079;29;20036;-70
2021/05/04 02:56:10;;;;;;;63.10;51.60;;;15.70;99.90;;;;;;4937670;29;20035;-70
2021/05/04 02:58:37;;;;;;;53.60;45.42;;;15.70;99.90;;;;;;4934543;29;20127;-71
2021/05/04 03:01:05;;;;;;;58.35;46.35;;;15.70;99.90;;;;;;4937861;29;20552;-71
2021/05/04 03:03:35;;;;;;;57.55;48.00;;;15.60;99.90;;;;;;4930550;29;20055;-71
2021/05/04 03:06:04;;;;;;;67.32;52.55;;;15.50;99.90;;;;;;4937637;29;20477;-71
2021/05/04 03:08:32;;;;;;;83.22;68.30;;;15.60;99.90;;;;;;4936168;29;20040;-71
2021/05/04 03:10:59;;;;;;;86.65;74.93;;;15.70;99.90;;;;;;4937680;29;20042;-71
2021/05/04 03:13:28;;;;;;;93.20;82.97;;;15.80;99.90;;;;;;4935802;29;20032;-72
2021/05/04 03:15:56;;;;;;;98.68;82.35;;;15.80;99.90;;;;;;4921965;29;20040;-71
2021/05/04 03:18:23;;;;;;;97.65;84.68;;;15.90;99.90;;;;;;4925239;29;20043;-71
2021/05/04 03:20:54;;;;;;;99.65;86.15;;;15.90;99.90;;;;;;4937628;29;20035;-71
2021/05/04 03:23:24;;;;;;;98.82;83.15;;;15.80;99.90;;;;;;4936602;29;20523;-71
2021/05/04 03:25:51;;;;;;;89.25;73.05;;;15.80;99.90;;;;;;4937337;29;20036;-72
2021/05/04 03:28:19;;;;;;;89.88;73.45;;;15.70;99.90;;;;;;4932029;29;20048;-71
2021/05/04 03:30:47;;;;;;;89.65;73.45;;;15.80;99.90;;;;;;4937318;29;20114;-72
2021/05/04 03:33:15;;;;;;;83.45;71.90;;;15.80;99.90;;;;;;4935361;29;20047;-72
2021/05/04 03:35:42;;;;;;;85.07;71.45;;;15.90;99.90;;;;;;4937379;29;20118;-72
2021/05/04 03:38:10;;;;;;;83.70;70.18;;;15.90;99.90;;;;;;4935178;29;20056;-72
2021/05/04 03:40:37;;;;;;;81.25;72.45;;;15.90;99.90;;;;;;4933740;29;20400;-72
2021/05/04 03:43:05;;;;;;;82.80;73.80;;;16.00;99.90;;;;;;4921333;29;20044;-72
2021/05/04 03:45:32;;;;;;;83.38;73.50;;;15.90;99.90;;;;;;4921340;29;20454;-72
2021/05/04 03:48:00;;;;;;;81.57;70.53;;;15.90;99.90;;;;;;4934035;29;20074;-71
2021/05/04 03:50:28;;;;;;;84.10;73.82;;;15.90;99.90;;;;;;4936270;29;20036;-72
2021/05/04 03:52:57;;;;;;;82.43;73.30;;;16.00;99.90;;;;;;4934078;29;20480;-71
2021/05/04 03:55:25;;;;;;;82.43;73.40;;;16.00;99.90;;;;;;4936937;29;20373;-72
2021/05/04 03:57:53;;;;;;;75.13;67.00;;;16.00;99.90;;;;;;4931517;29;20050;-71
2021/05/04 04:00:21;;;;;;;67.65;57.85;;;16.00;99.90;;;;;;4918751;29;20115;-71
2021/05/04 04:02:48;;;;;;;66.22;58.83;;;16.00;99.90;;;;;;4936737;29;20040;-72
2021/05/04 04:05:16;;;;;;;58.67;49.95;;;15.90;99.90;;;;;;4936063;29;20401;-71
2021/05/04 04:07:43;;;;;;;64.05;52.22;;;15.80;99.90;;;;;;4934236;29;20076;-71
2021/05/04 04:10:12;;;;;;;59.60;53.13;;;15.70;99.90;;;;;;4919216;29;20619;-72
2021/05/04 04:12:40;;;;;;;63.33;55.03;;;15.80;99.90;;;;;;4917269;29;20036;-72
2021/05/04 04:15:09;;;;;;;59.47;53.00;;;15.80;99.90;;;;;;4931533;29;20111;-72
2021/05/04 04:17:36;;;;;;;59.83;50.38;;;15.80;99.90;;;;;;4935764;29;20036;-71
2021/05/04 04:20:05;;;;;;;49.45;42.70;;;15.70;99.90;;;;;;4929213;29;20046;-71
2021/05/04 04:22:34;;;;;;;51.60;42.88;;;15.60;99.90;;;;;;4929222;29;20560;-72
2021/05/04 04:25:04;;;;;;;57.47;48.17;;;15.50;99.90;;;;;;4932382;29;20036;-71
2021/05/04 04:27:31;;;;;;;52.83;47.15;;;15.50;99.90;;;;;;4935088;29;20040;-71
2021/05/04 04:29:58;;;;;;;57.38;46.85;;;15.60;99.90;;;;;;4932681;29;20110;-71
2021/05/04 04:32:26;;;;;;;50.33;43.40;;;15.60;99.90;;;;;;4917929;29;20040;-71
2021/05/04 04:34:53;;;;;;;51.70;43.17;;;15.60;99.90;;;;;;4940928;29;20040;-71
2021/05/04 04:37:21;;;;;;;51.22;42.17;;;15.50;99.90;;;;;;4933962;29;20087;-71
2021/05/04 04:39:49;;;;;;;38.22;32.83;;;15.60;99.90;;;;;;4932940;29;20090;-70
2021/05/04 04:42:16;;;;;;;37.70;32.15;;;15.50;99.90;;;;;;4932297;29;20111;-70
2021/05/04 04:44:44;;;;;;;35.10;29.67;;;15.40;99.90;;;;;;4930761;29;20508;-70
2021/05/04 04:47:12;;;;;;;40.90;32.70;;;15.40;99.90;;;;;;4935201;29;20034;-71
2021/05/04 04:49:40;;;;;;;39.35;31.63;;;15.50;99.90;;;;;;4945969;29;20039;-71
2021/05/04 04:52:07;;;;;;;41.92;32.45;;;15.60;99.90;;;;;;4945116;29;20057;-71
2021/05/04 04:54:35;;;;;;;35.42;28.35;;;15.60;99.90;;;;;;4931469;29;20549;-71
2021/05/04 04:57:03;;;;;;;32.90;26.15;;;15.60;99.90;;;;;;4934949;29;20085;-72
2021/05/04 04:59:30;;;;;;;33.80;25.92;;;15.60;99.90;;;;;;4933788;29;20035;-72
2021/05/04 05:01:57;;;;;;;32.78;24.55;;;15.50;99.90;;;;;;4935249;29;20032;-72
2021/05/04 05:04:25;;;;;;;28.27;24.25;;;15.60;99.90;;;;;;4932770;29;20421;-71
2021/05/04 05:06:52;;;;;;;27.80;23.20;;;15.60;99.90;;;;;;4934701;29;20104;-71
2021/05/04 05:09:20;;;;;;;31.13;23.50;;;15.60;99.90;;;;;;4931739;29;20047;-71
2021/05/04 05:11:47;;;;;;;31.77;23.70;;;15.60;99.90;;;;;;4930784;29;20513;-71
2021/05/04 05:14:15;;;;;;;25.98;23.17;;;15.60;99.90;;;;;;4925116;29;20473;-71
2021/05/04 05:16:42;;;;;;;25.23;21.67;;;15.50;99.90;;;;;;4926135;29;20150;-71
2021/05/04 05:19:09;;;;;;;26.25;20.92;;;15.50;99.90;;;;;;4950087;29;20043;-71
2021/05/04 05:21:37;;;;;;;25.92;19.20;;;15.60;99.90;;;;;;4926341;29;20445;-71
2021/05/04 05:24:05;;;;;;;27.77;23.13;;;15.60;99.90;;;;;;4941931;29;20041;-71
2021/05/04 05:26:33;;;;;;;25.45;20.92;;;15.60;99.90;;;;;;4936467;29;20046;-71
2021/05/04 05:29:00;;;;;;;28.20;20.10;;;15.60;99.90;;;;;;4912681;29;20059;-71
2021/05/04 05:31:30;;;;;;;26.63;20.05;;;15.50;99.90;;;;;;4929264;29;20031;-71
2021/05/04 05:33:57;;;;;;;23.85;19.60;;;15.50;99.90;;;;;;4931791;29;20028;-71
2021/05/04 05:36:25;;;;;;;22.70;19.50;;;15.40;99.90;;;;;;4937750;29;20048;-70
2021/05/04 05:38:52;;;;;;;23.90;19.50;;;15.70;99.90;;;;;;4934319;29;20067;-71
2021/05/04 05:41:19;;;;;;;25.45;20.77;;;15.80;99.90;;;;;;4939214;29;20400;-71
2021/05/04 05:43:46;;;;;;;23.50;18.13;;;15.80;99.90;;;;;;4934540;29;20047;-71
2021/05/04 05:46:14;;;;;;;23.08;19.17;;;15.80;99.90;;;;;;4938348;29;20050;-71
2021/05/04 05:48:42;;;;;;;22.35;19.00;;;15.80;99.90;;;;;;4920546;29;20091;-71
2021/05/04 05:51:10;;;;;;;25.42;20.00;;;15.70;99.90;;;;;;4937576;29;20063;-71
2021/05/04 05:53:38;;;;;;;28.83;21.95;;;15.70;99.90;;;;;;4936303;29;20042;-71
2021/05/04 05:56:06;;;;;;;36.40;20.98;;;15.80;99.90;;;;;;4933866;29;20040;-71
2021/05/04 05:58:33;;;;;;;27.42;20.25;;;15.90;99.90;;;;;;4932203;29;20047;-71
2021/05/04 06:01:01;;;;;;;27.55;20.80;;;15.80;99.90;;;;;;4938525;29;20119;-71
2021/05/04 06:03:29;;;;;;;26.30;20.92;;;15.80;99.90;;;;;;4936614;29;20034;-71
2021/05/04 06:05:56;;;;;;;24.50;19.95;;;15.70;99.90;;;;;;4938665;29;20056;-71
2021/05/04 06:08:24;;;;;;;21.27;17.52;;;15.70;99.90;;;;;;4933860;29;20047;-71
2021/05/04 06:10:52;;;;;;;23.80;17.65;;;15.70;99.90;;;;;;4938595;29;20485;-71
2021/05/04 06:13:20;;;;;;;19.08;16.13;;;15.60;99.90;;;;;;4936391;29;20036;-71
2021/05/04 06:15:47;;;;;;;20.38;15.25;;;15.60;99.90;;;;;;4936139;29;20032;-71
2021/05/04 06:18:15;;;;;;;16.25;12.63;;;15.50;99.90;;;;;;4936562;29;20060;-71
2021/05/04 06:20:43;;;;;;;10.23;8.27;;;15.50;99.90;;;;;;4938085;29;20564;-71
2021/05/04 06:23:10;;;;;;;9.77;7.25;;;15.40;99.90;;;;;;4935039;29;20036;-71
2021/05/04 06:25:37;;;;;;;10.00;8.63;;;15.30;99.90;;;;;;4929497;29;20039;-71
2021/05/04 06:28:06;;;;;;;9.63;8.63;;;15.30;99.90;;;;;;4919586;29;20390;-71
2021/05/04 06:30:36;;;;;;;12.27;9.57;;;15.20;99.90;;;;;;4938346;29;20039;-71
2021/05/04 06:33:11;;;;;;;13.43;9.75;;;15.20;99.90;;;;;;4936614;29;20035;-70
2021/05/04 06:35:41;;;;;;;13.63;10.55;;;15.20;99.90;;;;;;4936922;29;20519;-70
2021/05/04 06:38:14;;;;;;;17.10;11.95;;;15.20;99.90;;;;;;4934457;29;20047;-70
2021/05/04 06:40:46;;;;;;;16.98;10.85;;;15.20;99.90;;;;;;4927602;29;20168;-70
2021/05/04 06:43:14;;;;;;;16.02;11.35;;;15.20;99.90;;;;;;4930945;29;20055;-70
2021/05/04 06:45:42;;;;;;;18.08;11.00;;;15.20;99.90;;;;;;4937537;29;20516;-70
2021/05/04 06:48:10;;;;;;;17.27;11.43;;;15.30;99.90;;;;;;4935255;29;20048;-71
2021/05/04 06:50:37;;;;;;;14.30;10.02;;;15.30;99.90;;;;;;4934291;29;20039;-71
2021/05/04 06:53:05;;;;;;;14.23;9.93;;;15.30;99.90;;;;;;4935848;29;20040;-70
2021/05/04 06:55:32;;;;;;;20.25;10.45;;;15.40;99.90;;;;;;4931906;29;20397;-70
2021/05/04 06:58:00;;;;;;;14.27;10.15;;;15.40;99.90;;;;;;4928066;29;20047;-70
2021/05/04 07:00:27;;;;;;;12.90;8.82;;;15.30;99.90;;;;;;4935203;29;20103;-70
2021/05/04 07:02:54;;;;;;;13.05;8.50;;;15.30;99.90;;;;;;4935182;29;20035;-70
2021/05/04 07:05:22;;;;;;;13.57;8.07;;;15.40;99.90;;;;;;4934941;29;20106;-70
2021/05/04 07:07:49;;;;;;;17.55;9.73;;;15.30;99.90;;;;;;4936881;29;20119;-71
2021/05/04 07:10:16;;;;;;;13.43;8.52;;;15.40;99.90;;;;;;4930357;29;20068;-71
2021/05/04 07:12:44;;;;;;;12.93;7.78;;;15.30;99.90;;;;;;4936011;29;20041;-71
2021/05/04 07:15:12;;;;;;;12.85;9.52;;;15.20;99.90;;;;;;4934234;29;20469;-71
2021/05/04 07:17:39;;;;;;;13.30;9.70;;;15.20;99.90;;;;;;4935482;29;20035;-73
2021/05/04 07:20:07;;;;;;;12.90;10.07;;;15.20;99.90;;;;;;4934784;29;20038;-72
2021/05/04 07:22:34;;;;;;;13.85;9.70;;;15.20;99.90;;;;;;4936751;29;20071;-71
2021/05/04 07:25:02;;;;;;;14.90;10.10;;;15.30;99.90;;;;;;4932135;29;20472;-71
2021/05/04 07:27:29;;;;;;;14.40;9.27;;;15.30;99.90;;;;;;4934234;29;20039;-71
2021/05/04 07:29:57;;;;;;;13.90;9.07;;;15.30;99.90;;;;;;4934260;29;20059;-69
2021/05/04 07:32:24;;;;;;;13.45;8.32;;;15.20;99.90;;;;;;4929848;29;20054;-69
2021/05/04 07:34:51;;;;;;;13.68;10.68;;;15.30;99.90;;;;;;4931328;29;20813;-69
2021/05/04 07:37:19;;;;;;;13.43;11.43;;;15.20;99.90;;;;;;4929572;29;20445;-69
2021/05/04 07:39:46;;;;;;;15.48;11.57;;;15.20;99.90;;;;;;4929616;29;20389;-69
2021/05/04 07:42:13;;;;;;;17.70;13.80;;;15.10;99.90;;;;;;4923420;29;20071;-69
2021/05/04 07:44:41;;;;;;;16.13;14.43;;;15.20;99.90;;;;;;4929701;29;20044;-69
2021/05/04 07:47:08;;;;;;;17.55;14.80;;;15.30;99.90;;;;;;4926979;29;20050;-69
2021/05/04 07:49:47;;;;;;;28.00;22.15;;;15.30;99.90;;;;;;4924351;29;20032;-69
2021/05/04 07:52:14;;;;;;;42.95;38.78;;;15.30;99.90;;;;;;4934236;29;20485;-69
2021/05/04 07:54:43;;;;;;;44.13;39.47;;;15.40;99.90;;;;;;4934188;29;20092;-69
2021/05/04 07:57:11;;;;;;;34.88;31.40;;;15.40;99.90;;;;;;4934785;29;20048;-69
2021/05/04 07:59:38;;;;;;;32.80;29.05;;;15.40;99.90;;;;;;4933986;29;20114;-69
2021/05/04 08:02:06;;;;;;;27.42;19.95;;;15.40;99.90;;;;;;4934398;29;20134;-69
2021/05/04 08:04:33;;;;;;;22.45;18.40;;;15.40;99.90;;;;;;4929212;29;20059;-70
2021/05/04 08:07:04;;;;;;;22.90;19.90;;;15.40;99.90;;;;;;4933473;29;20031;-69
2021/05/04 08:09:31;;;;;;;25.08;20.63;;;15.30;99.90;;;;;;4930843;29;20091;-69
2021/05/04 08:11:59;;;;;;;24.02;19.67;;;15.30;99.90;;;;;;4915687;29;20444;-69
2021/05/04 08:14:26;;;;;;;29.98;20.58;;;15.30;99.90;;;;;;4932901;29;20107;-69
2021/05/04 08:16:55;;;;;;;24.27;19.08;;;15.40;99.90;;;;;;4932523;29;20048;-69
2021/05/04 08:19:23;;;;;;;24.50;19.98;;;15.40;99.90;;;;;;4914585;29;20047;-69
2021/05/04 08:21:50;;;;;;;23.00;19.15;;;15.30;99.90;;;;;;4929610;29;20072;-69
2021/05/04 08:24:18;;;;;;;23.38;19.17;;;15.30;99.90;;;;;;4931636;29;20040;-69
2021/05/04 08:26:45;;;;;;;25.00;20.08;;;15.40;99.90;;;;;;4931932;29;20034;-68
2021/05/04 08:29:13;;;;;;;24.88;19.00;;;15.40;99.90;;;;;;4928914;29;20488;-69
2021/05/04 08:31:40;;;;;;;23.52;16.65;;;15.40;99.90;;;;;;4928023;29;20032;-69
2021/05/04 08:34:09;;;;;;;22.33;16.95;;;15.40;99.90;;;;;;4934364;29;20039;-68
2021/05/04 08:36:37;;;;;;;23.02;17.85;;;15.30;99.90;;;;;;4934490;29;20040;-69
2021/05/04 08:39:05;;;;;;;20.58;16.23;;;15.30;99.90;;;;;;4934979;29;20032;-69
2021/05/04 08:41:35;;;;;;;20.17;15.55;;;15.30;99.90;;;;;;4926525;29;20039;-69
2021/05/04 08:44:03;;;;;;;20.95;16.00;;;15.30;99.90;;;;;;4933817;29;20044;-69
2021/05/04 08:46:34;;;;;;;21.42;17.17;;;15.30;99.90;;;;;;4934658;29;20031;-69
2021/05/04 08:49:04;;;;;;;21.92;16.65;;;15.30;99.90;;;;;;4934455;29;20044;-69
2021/05/04 08:51:33;;;;;;;20.92;16.08;;;15.30;99.90;;;;;;4934485;29;20043;-68
2021/05/04 08:54:00;;;;;;;22.88;17.70;;;15.30;99.90;;;;;;4934175;29;20079;-69
2021/05/04 08:56:28;;;;;;;24.75;19.42;;;15.30;99.90;;;;;;4934471;29;20044;-68
2021/05/04 08:58:55;;;;;;;23.52;20.33;;;15.30;99.90;;;;;;4931985;29;20040;-69
2021/05/04 09:01:22;;;;;;;27.75;20.65;;;15.20;99.90;;;;;;4932173;29;20055;-68
2021/05/04 09:03:53;;;;;;;30.48;23.23;;;15.20;99.90;;;;;;4934456;29;20035;-69
2021/05/04 09:06:40;;;;;;;30.33;23.40;;;15.10;99.90;;;;;;4934300;29;20039;-69
2021/05/04 09:09:20;;;;;;;29.92;22.27;;;15.20;99.90;;;;;;4934368;29;20361;-69
2021/05/04 09:14:25;;;;;;;27.63;22.45;;;15.20;99.90;;;;;;4931899;29;20063;-69
2021/05/04 09:17:23;;;;;;;29.15;24.65;;;15.20;99.90;;;;;;4933489;29;20047;-69
2021/05/04 09:20:30;;;;;;;27.95;21.90;;;15.20;99.90;;;;;;4933871;29;20437;-69
2021/05/04 09:23:07;;;;;;;24.13;19.63;;;15.20;99.90;;;;;;4932402;29;20063;-69
2021/05/04 09:25:40;;;;;;;25.92;22.30;;;15.20;99.90;;;;;;4932793;29;20040;-68
2021/05/04 09:28:13;;;;;;;32.72;24.00;;;15.10;99.90;;;;;;4934351;29;20103;-69
2021/05/04 09:30:50;;;;;;;26.40;22.13;;;15.20;99.90;;;;;;4935114;29;20040;-69
2021/05/04 09:33:18;;;;;;;28.98;22.48;;;15.10;99.90;;;;;;4935118;29;20039;-69
2021/05/04 09:35:45;;;;;;;28.92;24.00;;;15.10;99.90;;;;;;4935002;29;20042;-69
2021/05/04 09:38:15;;;;;;;28.95;23.15;;;15.20;99.90;;;;;;4934096;29;20059;-69
2021/05/04 09:40:44;;;;;;;27.33;21.85;;;15.20;99.90;;;;;;4934506;29;20513;-69
2021/05/04 09:43:12;;;;;;;27.30;20.98;;;15.20;99.90;;;;;;4934586;29;20095;-69
2021/05/04 09:45:48;;;;;;;26.95;20.27;;;15.30;99.90;;;;;;4929431;29;20040;-69
2021/05/04 09:48:21;;;;;;;26.35;21.08;;;15.20;99.90;;;;;;4928374;29;20040;-70
2021/05/04 09:51:15;;;;;;;29.05;22.50;;;15.20;99.90;;;;;;4934288;29;20091;-70
2021/05/04 09:56:36;;;;;;;31.38;24.92;;;15.10;99.90;;;;;;4934520;29;20382;-69
2021/05/04 09:59:05;;;;;;;26.63;23.23;;;15.10;99.90;;;;;;4933918;29;20102;-70
2021/05/04 10:01:32;;;;;;;28.30;23.73;;;15.10;99.90;;;;;;4928742;29;20122;-69
2021/05/04 10:04:01;;;;;;;27.90;23.45;;;15.10;99.90;;;;;;4935110;29;20036;-70
2021/05/04 10:06:28;;;;;;;28.15;24.08;;;15.10;99.90;;;;;;4934213;29;20071;-70
2021/05/04 10:08:57;;;;;;;27.50;24.25;;;15.10;99.90;;;;;;4934172;29;20126;-69
2021/05/04 10:11:25;;;;;;;32.13;26.33;;;15.00;99.90;;;;;;4934468;29;20059;-69
2021/05/04 10:13:55;;;;;;;32.55;24.92;;;15.00;99.90;;;;;;4932438;29;20409;-70
2021/05/04 10:16:23;;;;;;;28.52;25.48;;;15.10;99.90;;;;;;4933767;29;20067;-70
2021/05/04 10:18:52;;;;;;;28.40;25.08;;;15.00;99.90;;;;;;4934264;29;20437;-70
2021/05/04 10:21:20;;;;;;;29.70;24.08;;;15.10;99.90;;;;;;4937730;29;20036;-70
2021/05/04 10:23:49;;;;;;;29.85;25.83;;;15.00;99.90;;;;;;4938070;29;20063;-70
2021/05/04 10:26:18;;;;;;;28.67;25.35;;;15.00;99.90;;;;;;4937587;29;20066;-70
2021/05/04 10:28:55;;;;;;;32.28;26.45;;;15.00;99.90;;;;;;4937737;29;20039;-70
2021/05/04 10:31:40;;;;;;;30.02;25.35;;;15.00;99.90;;;;;;4937924;29;20039;-70
2021/05/04 10:34:34;;;;;;;30.38;25.85;;;15.00;99.90;;;;;;4938090;29;20032;-70
2021/05/04 10:37:14;;;;;;;32.72;26.38;;;15.00;99.90;;;;;;4937860;29;20028;-70
2021/05/04 10:39:48;;;;;;;32.47;26.13;;;14.90;99.90;;;;;;4937401;29;20060;-70
2021/05/04 10:42:33;;;;;;;34.67;27.02;;;15.00;99.90;;;;;;4937973;29;20047;-70
2021/05/04 10:45:00;;;;;;;29.90;26.80;;;15.00;99.90;;;;;;4937386;29;20032;-70
2021/05/04 10:47:43;;;;;;;31.75;27.00;;;15.00;99.90;;;;;;4937527;29;20062;-71
2021/05/04 10:50:24;;;;;;;35.10;28.23;;;14.90;99.90;;;;;;4933985;29;20447;-70
2021/05/04 10:53:03;;;;;;;31.50;27.70;;;14.90;99.90;;;;;;4937900;29;20047;-70
2021/05/04 10:55:52;;;;;;;34.75;28.85;;;15.00;99.90;;;;;;4939670;29;20039;-72
2021/05/04 10:58:26;;;;;;;35.88;29.50;;;15.00;99.90;;;;;;4937510;29;20087;-70
2021/05/04 11:00:54;;;;;;;;;;;15.00;99.90;;;;;;4938116;29;20055;-70
2021/05/04 11:03:34;;;;;;;31.63;27.77;;;15.00;99.90;;;;;;4936706;29;19911;-69
2021/05/04 11:06:08;;;;;;;33.92;28.83;;;15.00;99.90;;;;;;4936389;29;20042;-69
2021/05/04 11:08:44;;;;;;;33.92;27.73;;;15.00;99.90;;;;;;4935927;29;20040;-70
2021/05/04 11:11:39;;;;;;;35.35;29.10;;;15.00;99.90;;;;;;4937466;29;20040;-70
2021/05/04 11:14:15;;;;;;;35.13;28.55;;;15.00;99.90;;;;;;4937064;29;20070;-70
2021/05/04 11:17:07;;;;;;;34.75;29.42;;;14.90;99.90;;;;;;4937052;29;20040;-69
2021/05/04 11:19:40;;;;;;;34.88;30.23;;;14.90;99.90;;;;;;4936903;29;20054;-69
2021/05/04 11:22:13;;;;;;;33.75;29.75;;;14.90;99.90;;;;;;4937351;29;20071;-69
2021/05/04 11:24:46;;;;;;;34.53;30.98;;;14.90;99.90;;;;;;4936452;29;20425;-69
2021/05/04 11:27:13;;;;;;;37.83;32.58;;;14.90;99.90;;;;;;4918167;29;20039;-70
2021/05/04 11:29:42;;;;;;;43.65;33.55;;;14.90;99.90;;;;;;4929050;29;20617;-69
2021/05/04 11:32:27;;;;;;;41.75;33.13;;;14.90;99.90;;;;;;4936888;29;20444;-69
2021/05/04 11:35:01;;;;;;;34.55;30.88;;;14.90;99.90;;;;;;4936692;29;20099;-70
2021/05/04 11:37:30;;;;;;;34.22;30.27;;;14.90;99.90;;;;;;4936742;29;20059;-69
2021/05/04 11:40:06;;;;;;;36.28;29.48;;;14.90;99.90;;;;;;4937210;29;20032;-69
2021/05/04 11:42:47;;;;;;;35.33;30.38;;;14.80;99.90;;;;;;4925323;29;20090;-69
2021/05/04 11:45:17;;;;;;;35.50;29.88;;;14.80;99.90;;;;;;4934142;29;20036;-69
2021/05/04 11:47:47;;;;;;;35.63;30.35;;;14.80;99.90;;;;;;4934183;29;20035;-71
2021/05/04 11:50:21;;;;;;;34.92;30.60;;;14.90;99.90;;;;;;4933017;29;20057;-70
2021/05/04 11:52:57;;;;;;;35.42;28.90;;;14.80;99.90;;;;;;4934078;29;20067;-71
2021/05/04 11:55:32;;;;;;;34.85;29.17;;;14.90;99.90;;;;;;4936154;29;20127;-71
2021/05/04 11:58:08;;;;;;;38.80;30.13;;;14.80;99.90;;;;;;4936584;29;20046;-70
2021/05/04 12:00:39;;;;;;;31.33;27.85;;;14.80;99.90;;;;;;4934725;29;20039;-70
2021/05/04 12:03:11;;;;;;;33.78;30.17;;;14.80;99.90;;;;;;4933373;29;20580;-69
2021/05/04 12:05:39;;;;;;;36.40;29.58;;;14.90;99.90;;;;;;4934859;29;20086;-69
2021/05/04 12:08:08;;;;;;;34.85;30.50;;;14.80;99.90;;;;;;4933660;29;20168;-69
2021/05/04 12:10:37;;;;;;;33.83;30.05;;;14.90;99.90;;;;;;4934435;29;20063;-69
2021/05/04 12:13:10;;;;;;;36.10;30.88;;;14.90;99.90;;;;;;4932902;29;20035;-69
2021/05/04 12:15:39;;;;;;;33.45;29.90;;;14.90;99.90;;;;;;4933925;29;20028;-69
2021/05/04 12:18:16;;;;;;;33.30;29.38;;;14.90;99.90;;;;;;4934672;29;20043;-69
2021/05/04 12:20:49;;;;;;;36.85;30.58;;;15.00;99.90;;;;;;4935104;29;20055;-69
2021/05/04 12:23:27;;;;;;;35.65;30.50;;;14.90;99.90;;;;;;4935784;29;20048;-69
2021/05/04 12:25:59;;;;;;;37.50;31.02;;;14.80;99.90;;;;;;4926261;29;20035;-69
2021/05/04 12:28:32;;;;;;;38.28;31.52;;;14.80;99.90;;;;;;4925570;29;20039;-69
2021/05/04 12:31:07;;;;;;;36.53;28.50;;;14.80;99.90;;;;;;4934046;29;20027;-69
2021/05/04 12:33:35;;;;;;;33.63;29.92;;;14.80;99.90;;;;;;4935104;29;20511;-69
2021/05/04 12:36:12;;;;;;;31.25;26.35;;;14.70;99.90;;;;;;4917538;29;20118;-69
2021/05/04 12:38:51;;;;;;;30.10;24.75;;;14.70;99.90;;;;;;4935403;29;20078;-69
2021/05/04 12:41:21;;;;;;;27.83;24.30;;;14.70;99.90;;;;;;4933528;29;20122;-69
2021/05/04 12:44:13;;;;;;;29.67;23.55;;;14.70;99.90;;;;;;4934099;29;20040;-69
2021/05/04 12:46:44;;;;;;;34.25;26.80;;;14.70;99.90;;;;;;4934384;29;20106;-69